Time,TemperatureF,DewpointF,PressureIn,WindDirection,WindDirectionDegrees,WindSpeedMPH,WindSpeedGustMPH,Humidity,HourlyPrecipIn,Conditions,Clouds,dailyrainin,SoftwareType,DateUTC
2013-07-18 00:02:00,78.9,27.4,29.85,SW,234,0.0,1.0,15,0.00,,CLR,0.00,VWS V14.01,2013-07-18 07:02:00,
2013-07-18 00:07:00,78.7,25.5,29.85,SW,234,0.0,1.0,14,0.00,,CLR,0.00,VWS V14.01,2013-07-18 07:07:00,
2013-07-18 00:12:00,78.4,25.3,29.85,SW,234,0.0,0.0,14,0.00,,CLR,0.00,VWS V14.01,2013-07-18 07:12:00,
2013-07-18 00:17:00,77.9,26.6,29.85,SW,234,0.0,0.0,15,0.00,,CLR,0.00,VWS V14.01,2013-07-18 07:17:00,
2013-07-18 00:22:00,77.3,27.7,29.85,SW,234,0.0,0.0,16,0.00,,CLR,0.00,VWS V14.01,2013-07-18 07:22:00,
2013-07-18 00:27:00,76.6,28.6,29.85,SW,234,0.0,0.0,17,0.00,,CLR,0.00,VWS V14.01,2013-07-18 07:27:00,
2013-07-18 00:32:00,75.8,27.9,29.85,SW,234,0.0,0.0,17,0.00,,CLR,0.00,VWS V14.01,2013-07-18 07:32:00,
2013-07-18 00:37:00,75.0,25.8,29.85,SW,234,0.0,0.0,16,0.00,,CLR,0.00,VWS V14.01,2013-07-18 07:37:00,
2013-07-18 00:42:00,74.4,29.5,29.85,SW,234,0.0,0.0,19,0.00,,CLR,0.00,VWS V14.01,2013-07-18 07:42:00,
2013-07-18 00:47:00,73.9,29.1,29.85,SW,234,0.0,0.0,19,0.00,,CLR,0.00,VWS V14.01,2013-07-18 07:47:00,
2013-07-18 00:53:00,73.3,28.6,29.84,SW,234,0.0,0.0,19,0.00,,CLR,0.00,VWS V14.01,2013-07-18 07:53:00,
2013-07-18 00:58:00,72.8,28.2,29.84,SW,234,0.0,0.0,19,0.00,,CLR,0.00,VWS V14.01,2013-07-18 07:58:00,
2013-07-18 01:03:00,72.3,29.0,29.84,SW,234,0.0,0.0,20,0.00,,CLR,0.00,VWS V14.01,2013-07-18 08:03:00,
2013-07-18 01:08:00,72.0,30.0,29.84,SW,234,0.0,0.0,21,0.00,,CLR,0.00,VWS V14.01,2013-07-18 08:08:00,
2013-07-18 01:13:00,71.7,30.9,29.84,SW,234,0.0,0.0,22,0.00,,CLR,0.00,VWS V14.01,2013-07-18 08:13:00,
2013-07-18 01:18:00,71.3,31.6,29.84,SW,234,0.0,0.0,23,0.00,,CLR,0.00,VWS V14.01,2013-07-18 08:18:00,
2013-07-18 01:23:00,70.8,31.2,29.84,SW,234,0.0,0.0,23,0.00,,CLR,0.00,VWS V14.01,2013-07-18 08:23:00,
2013-07-18 01:28:00,70.3,32.8,29.84,SW,234,0.0,0.0,25,0.00,,CLR,0.00,VWS V14.01,2013-07-18 08:28:00,
2013-07-18 01:33:00,69.9,32.5,29.84,SW,234,0.0,0.0,25,0.00,,CLR,0.00,VWS V14.01,2013-07-18 08:33:00,
2013-07-18 01:38:00,69.5,32.2,29.84,SW,234,0.0,0.0,25,0.00,,CLR,0.00,VWS V14.01,2013-07-18 08:38:00,
2013-07-18 01:43:00,68.9,31.7,29.84,SW,234,0.0,0.0,25,0.00,,CLR,0.00,VWS V14.01,2013-07-18 08:43:00,
2013-07-18 01:48:00,68.6,31.4,29.84,SW,234,0.0,0.0,25,0.00,,CLR,0.00,VWS V14.01,2013-07-18 08:48:00,
2013-07-18 01:53:00,68.3,32.1,29.84,SW,234,0.0,0.0,26,0.00,,CLR,0.00,VWS V14.01,2013-07-18 08:53:00,
2013-07-18 01:58:00,68.1,32.0,29.84,SW,234,0.0,0.0,26,0.00,,CLR,0.00,VWS V14.01,2013-07-18 08:58:00,
2013-07-18 02:03:00,67.9,31.8,29.83,SW,234,0.0,0.0,26,0.00,,CLR,0.00,VWS V14.01,2013-07-18 09:03:00,
2013-07-18 02:09:00,67.8,33.5,29.84,SW,234,0.0,0.0,28,0.00,,CLR,0.00,VWS V14.01,2013-07-18 09:09:00,
2013-07-18 02:14:00,67.5,33.3,29.83,SW,234,0.0,0.0,28,0.00,,CLR,0.00,VWS V14.01,2013-07-18 09:14:00,
2013-07-18 02:19:00,67.3,32.2,29.83,SW,234,0.0,0.0,27,0.00,,CLR,0.00,VWS V14.01,2013-07-18 09:19:00,
2013-07-18 02:24:00,67.0,33.7,29.83,SW,234,0.0,0.0,29,0.00,,CLR,0.00,VWS V14.01,2013-07-18 09:24:00,
2013-07-18 02:29:00,66.8,32.7,29.83,SW,234,0.0,0.0,28,0.00,,CLR,0.00,VWS V14.01,2013-07-18 09:29:00,
2013-07-18 02:34:00,66.6,32.5,29.83,SW,234,0.0,0.0,28,0.00,,CLR,0.00,VWS V14.01,2013-07-18 09:34:00,
2013-07-18 02:39:00,66.5,33.3,29.83,SW,234,0.0,0.0,29,0.00,,CLR,0.00,VWS V14.01,2013-07-18 09:39:00,
2013-07-18 02:44:00,66.3,33.1,29.83,SW,234,0.0,0.0,29,0.00,,CLR,0.00,VWS V14.01,2013-07-18 09:44:00,
2013-07-18 02:49:00,66.0,32.9,29.83,SW,234,0.0,0.0,29,0.00,,CLR,0.00,VWS V14.01,2013-07-18 09:49:00,
2013-07-18 02:54:00,65.8,33.5,29.82,SW,234,0.0,0.0,30,0.00,,CLR,0.00,VWS V14.01,2013-07-18 09:54:00,
2013-07-18 02:59:00,65.6,33.4,29.83,SW,234,0.0,0.0,30,0.00,,CLR,0.00,VWS V14.01,2013-07-18 09:59:00,
2013-07-18 03:04:00,65.4,32.3,29.83,SW,234,0.0,0.0,29,0.00,,CLR,0.00,VWS V14.01,2013-07-18 10:04:00,
2013-07-18 03:09:00,65.2,33.0,29.83,SW,234,0.0,0.0,30,0.00,,CLR,0.00,VWS V14.01,2013-07-18 10:09:00,
2013-07-18 03:14:00,65.0,32.0,29.83,SW,234,0.0,0.0,29,0.00,,CLR,0.00,VWS V14.01,2013-07-18 10:14:00,
2013-07-18 03:19:00,64.8,31.8,29.83,SW,234,0.0,0.0,29,0.00,,CLR,0.00,VWS V14.01,2013-07-18 10:19:00,
2013-07-18 03:25:00,64.7,30.9,29.83,SW,234,0.0,0.0,28,0.00,,CLR,0.00,VWS V14.01,2013-07-18 10:25:00,
2013-07-18 03:30:00,64.7,31.7,29.82,SW,234,0.0,0.0,29,0.00,,CLR,0.00,VWS V14.01,2013-07-18 10:30:00,
2013-07-18 03:35:00,64.7,32.6,29.82,SW,234,0.0,0.0,30,0.00,,CLR,0.00,VWS V14.01,2013-07-18 10:35:00,
2013-07-18 03:40:00,64.6,32.5,29.82,SW,234,0.0,0.0,30,0.00,,CLR,0.00,VWS V14.01,2013-07-18 10:40:00,
2013-07-18 03:45:00,64.5,32.4,29.83,SW,234,0.0,0.0,30,0.00,,CLR,0.00,VWS V14.01,2013-07-18 10:45:00,
2013-07-18 03:50:00,64.5,31.6,29.82,SW,234,0.0,0.0,29,0.00,,CLR,0.00,VWS V14.01,2013-07-18 10:50:00,
2013-07-18 03:55:00,64.5,32.4,29.82,SW,234,0.0,0.0,30,0.00,,CLR,0.00,VWS V14.01,2013-07-18 10:55:00,
2013-07-18 04:00:00,64.5,31.6,29.82,SW,234,0.0,0.0,29,0.00,,CLR,0.00,VWS V14.01,2013-07-18 11:00:00,
2013-07-18 04:05:00,64.4,31.5,29.82,SW,234,0.0,0.0,29,0.00,,CLR,0.00,VWS V14.01,2013-07-18 11:05:00,
2013-07-18 04:10:00,64.4,31.5,29.82,SW,234,0.0,0.0,29,0.00,,CLR,0.00,VWS V14.01,2013-07-18 11:10:00,
2013-07-18 04:15:00,64.3,32.2,29.82,SW,234,0.0,0.0,30,0.00,,CLR,0.00,VWS V14.01,2013-07-18 11:15:00,
2013-07-18 04:20:00,64.3,32.2,29.82,SW,234,0.0,0.0,30,0.00,,CLR,0.00,VWS V14.01,2013-07-18 11:20:00,
2013-07-18 04:25:00,64.3,32.2,29.82,SW,234,0.0,0.0,30,0.00,,CLR,0.00,VWS V14.01,2013-07-18 11:25:00,
2013-07-18 04:30:00,64.5,32.4,29.82,SW,234,0.0,0.0,30,0.00,,CLR,0.00,VWS V14.01,2013-07-18 11:30:00,
2013-07-18 04:35:00,64.6,32.5,29.82,SW,234,0.0,0.0,30,0.00,,CLR,0.00,VWS V14.01,2013-07-18 11:35:00,
2013-07-18 04:41:00,64.8,32.7,29.82,SW,234,0.0,0.0,30,0.00,,CLR,0.00,VWS V14.01,2013-07-18 11:41:00,
2013-07-18 04:46:00,64.9,32.8,29.82,SW,234,0.0,0.0,30,0.00,,CLR,0.00,VWS V14.01,2013-07-18 11:46:00,
2013-07-18 04:51:00,64.8,32.7,29.83,SW,234,0.0,0.0,30,0.00,,CLR,0.00,VWS V14.01,2013-07-18 11:51:00,
2013-07-18 04:56:00,64.8,33.5,29.83,SW,234,0.0,0.0,31,0.00,,CLR,0.00,VWS V14.01,2013-07-18 11:56:00,
2013-07-18 05:01:00,64.5,34.0,29.83,SW,234,0.0,0.0,32,0.00,,CLR,0.00,VWS V14.01,2013-07-18 12:01:00,
2013-07-18 05:06:00,64.3,33.8,29.83,SW,234,0.0,0.0,32,0.00,,CLR,0.00,VWS V14.01,2013-07-18 12:06:00,
2013-07-18 05:11:00,64.0,34.3,29.83,SW,234,0.0,0.0,33,0.00,,CLR,0.00,VWS V14.01,2013-07-18 12:11:00,
2013-07-18 05:16:00,63.6,34.7,29.83,SW,234,0.0,0.0,34,0.00,,CLR,0.00,VWS V14.01,2013-07-18 12:16:00,
2013-07-18 05:21:00,63.3,34.5,29.83,SW,234,0.0,0.0,34,0.00,,CLR,0.00,VWS V14.01,2013-07-18 12:21:00,
2013-07-18 05:26:00,63.0,34.9,29.83,SW,234,0.0,0.0,35,0.00,,CLR,0.00,VWS V14.01,2013-07-18 12:26:00,
2013-07-18 05:31:00,62.8,35.5,29.83,SW,234,0.0,0.0,36,0.00,,CLR,0.00,VWS V14.01,2013-07-18 12:31:00,
2013-07-18 05:36:00,62.6,36.0,29.84,SW,234,0.0,0.0,37,0.00,,CLR,0.00,VWS V14.01,2013-07-18 12:36:00,
2013-07-18 05:41:00,62.3,35.7,29.84,SW,234,0.0,0.0,37,0.00,,CLR,0.00,VWS V14.01,2013-07-18 12:41:00,
2013-07-18 05:46:00,62.1,35.5,29.84,SW,234,0.0,0.0,37,0.00,,CLR,0.00,VWS V14.01,2013-07-18 12:46:00,
2013-07-18 05:51:00,61.9,36.0,29.84,SW,234,0.0,0.0,38,0.00,,CLR,0.00,VWS V14.01,2013-07-18 12:51:00,
2013-07-18 05:57:00,61.7,35.9,29.84,SW,234,0.0,0.0,38,0.00,,CLR,0.00,VWS V14.01,2013-07-18 12:57:00,
2013-07-18 06:02:00,61.6,34.4,29.84,SW,234,0.0,0.0,36,0.00,,CLR,0.00,VWS V14.01,2013-07-18 13:02:00,
2013-07-18 06:07:00,61.6,43.3,29.84,SW,234,0.0,0.0,51,0.00,,CLR,0.00,VWS V14.01,2013-07-18 13:07:00,
2013-07-18 06:12:00,61.6,45.8,29.84,SW,234,0.0,0.0,56,0.00,,CLR,0.00,VWS V14.01,2013-07-18 13:12:00,
2013-07-18 06:17:00,61.4,39.9,29.85,SW,234,0.0,0.0,45,0.00,,CLR,0.00,VWS V14.01,2013-07-18 13:17:00,
2013-07-18 06:22:00,61.4,39.3,29.85,SW,234,0.0,0.0,44,0.00,,CLR,0.00,VWS V14.01,2013-07-18 13:22:00,
2013-07-18 06:27:00,61.3,38.6,29.85,SW,234,0.0,0.0,43,0.00,,CLR,0.00,VWS V14.01,2013-07-18 13:27:00,
2013-07-18 06:32:00,61.3,40.9,29.85,SW,234,0.0,0.0,47,0.00,,CLR,0.00,VWS V14.01,2013-07-18 13:32:00,
2013-07-18 06:37:00,61.4,38.7,29.85,SW,234,0.0,0.0,43,0.00,,CLR,0.00,VWS V14.01,2013-07-18 13:37:00,
2013-07-18 06:40:00,61.5,38.8,29.85,North,0,0.0,0.0,43,0.00,,CLR,0.00,VWS V14.01,2013-07-18 13:40:00,
2013-07-18 06:42:00,61.7,39.0,29.85,SW,235,0.0,0.0,43,0.00,,CLR,0.00,VWS V14.01,2013-07-18 13:42:00,
2013-07-18 06:47:00,62.1,39.4,29.86,SW,235,0.0,0.0,43,0.00,,CLR,0.00,VWS V14.01,2013-07-18 13:47:00,
2013-07-18 06:54:00,62.7,39.9,29.85,SW,235,0.0,0.0,43,0.00,,CLR,0.00,VWS V14.01,2013-07-18 13:54:00,
2013-07-18 06:59:00,63.3,40.5,29.85,SW,235,0.0,0.0,43,0.00,,CLR,0.00,VWS V14.01,2013-07-18 13:59:00,
2013-07-18 07:04:00,63.7,40.2,29.86,SW,235,0.0,0.0,42,0.00,,CLR,0.00,VWS V14.01,2013-07-18 14:04:00,
2013-07-18 07:09:00,64.3,41.3,29.86,SW,235,0.0,0.0,43,0.00,,CLR,0.00,VWS V14.01,2013-07-18 14:09:00,
2013-07-18 07:14:00,65.2,41.5,29.86,SW,235,0.0,0.0,42,0.00,,CLR,0.00,VWS V14.01,2013-07-18 14:14:00,
2013-07-18 07:19:00,66.1,42.4,29.85,SW,235,0.0,0.0,42,0.00,,CLR,0.00,VWS V14.01,2013-07-18 14:19:00,
2013-07-18 07:24:00,67.1,42.6,29.85,SW,235,0.0,0.0,41,0.00,,CLR,0.00,VWS V14.01,2013-07-18 14:24:00,
2013-07-18 07:29:00,68.5,42.6,29.86,SW,235,0.0,0.0,39,0.00,,CLR,0.00,VWS V14.01,2013-07-18 14:29:00,
2013-07-18 07:35:00,70.0,42.6,29.86,SW,235,0.0,0.0,37,0.00,,CLR,0.00,VWS V14.01,2013-07-18 14:35:00,
2013-07-18 07:40:00,71.1,42.1,29.86,SSE,163,0.0,0.0,35,0.00,,CLR,0.00,VWS V14.01,2013-07-18 14:40:00,
2013-07-18 07:45:00,71.7,42.6,29.87,SSE,163,0.0,0.0,35,0.00,,CLR,0.00,VWS V14.01,2013-07-18 14:45:00,
2013-07-18 07:50:00,72.2,41.5,29.86,SSE,163,0.0,0.0,33,0.00,,CLR,0.00,VWS V14.01,2013-07-18 14:50:00,
2013-07-18 07:55:00,72.7,40.3,29.86,SSE,163,0.0,0.0,31,0.00,,CLR,0.00,VWS V14.01,2013-07-18 14:55:00,
2013-07-18 08:00:00,73.0,39.8,29.87,SSE,163,0.0,0.0,30,0.00,,CLR,0.00,VWS V14.01,2013-07-18 15:00:00,
2013-07-18 08:05:00,73.7,38.6,29.87,SSE,163,0.0,0.0,28,0.00,,CLR,0.00,VWS V14.01,2013-07-18 15:05:00,
2013-07-18 08:10:00,74.2,38.1,29.87,SSE,163,0.0,0.0,27,0.00,,CLR,0.00,VWS V14.01,2013-07-18 15:10:00,
2013-07-18 08:15:00,74.7,36.6,29.87,SSE,163,0.0,0.0,25,0.00,,CLR,0.00,VWS V14.01,2013-07-18 15:15:00,
2013-07-18 08:20:00,75.2,34.9,29.87,SSE,163,0.0,0.0,23,0.00,,CLR,0.00,VWS V14.01,2013-07-18 15:20:00,
2013-07-18 08:25:00,76.0,35.6,29.87,SSE,163,0.0,0.0,23,0.00,,CLR,0.00,VWS V14.01,2013-07-18 15:25:00,
2013-07-18 08:30:00,76.6,36.1,29.87,SSE,163,0.0,0.0,23,0.00,,CLR,0.00,VWS V14.01,2013-07-18 15:30:00,
2013-07-18 08:35:00,77.2,36.6,29.87,SSE,163,0.0,0.0,23,0.00,,CLR,0.00,VWS V14.01,2013-07-18 15:35:00,
2013-07-18 08:40:00,77.5,35.7,29.87,SSE,163,0.0,0.0,22,0.00,,CLR,0.00,VWS V14.01,2013-07-18 15:40:00,
2013-07-18 08:45:00,78.1,32.5,29.87,SSE,163,0.0,0.0,19,0.00,,CLR,0.00,VWS V14.01,2013-07-18 15:45:00,
2013-07-18 08:50:00,78.8,34.4,29.87,SSE,163,0.0,0.0,20,0.00,,CLR,0.00,VWS V14.01,2013-07-18 15:50:00,
2013-07-18 08:56:00,80.3,35.6,29.87,SSE,163,0.0,0.0,20,0.00,,CLR,0.00,VWS V14.01,2013-07-18 15:56:00,
2013-07-18 09:01:00,81.0,34.9,29.87,SSE,163,0.0,0.0,19,0.00,,CLR,0.00,VWS V14.01,2013-07-18 16:01:00,
2013-07-18 09:06:00,82.0,34.4,29.87,SSE,163,0.0,0.0,18,0.00,,CLR,0.00,VWS V14.01,2013-07-18 16:06:00,
2013-07-18 09:11:00,82.8,33.6,29.87,SSE,163,0.0,0.0,17,0.00,,CLR,0.00,VWS V14.01,2013-07-18 16:11:00,
2013-07-18 09:16:00,84.0,37.3,29.87,SSE,163,0.0,0.0,19,0.00,,CLR,0.00,VWS V14.01,2013-07-18 16:16:00,
2013-07-18 09:21:00,84.6,35.0,29.87,SSE,163,0.0,0.0,17,0.00,,CLR,0.00,VWS V14.01,2013-07-18 16:21:00,
2013-07-18 09:26:00,85.2,35.5,29.87,SSE,163,0.0,0.0,17,0.00,,CLR,0.00,VWS V14.01,2013-07-18 16:26:00,
2013-07-18 09:31:00,85.5,34.2,29.87,SSE,163,0.0,0.0,16,0.00,,CLR,0.00,VWS V14.01,2013-07-18 16:31:00,
2013-07-18 09:36:00,85.9,36.1,29.87,SSE,163,0.0,0.0,17,0.00,,CLR,0.00,VWS V14.01,2013-07-18 16:36:00,
2013-07-18 09:41:00,86.2,33.2,29.87,SSE,148,0.0,0.0,15,0.00,,CLR,0.00,VWS V14.01,2013-07-18 16:41:00,
2013-07-18 09:46:00,86.7,35.2,29.87,SSE,148,0.0,0.0,16,0.00,,CLR,0.00,VWS V14.01,2013-07-18 16:46:00,
2013-07-18 09:52:00,86.9,32.0,29.87,SE,144,4.0,4.0,14,0.00,,CLR,0.00,VWS V14.01,2013-07-18 16:52:00,
2013-07-18 09:57:00,87.2,34.0,29.86,SE,144,0.0,4.0,15,0.00,,CLR,0.00,VWS V14.01,2013-07-18 16:57:00,
2013-07-18 10:02:00,87.3,35.7,29.86,SE,144,0.0,0.0,16,0.00,,CLR,0.00,VWS V14.01,2013-07-18 17:02:00,
2013-07-18 10:07:00,87.8,30.9,29.86,SE,143,0.0,0.0,13,0.00,,CLR,0.00,VWS V14.01,2013-07-18 17:07:00,
2013-07-18 10:12:00,88.0,31.0,29.86,SE,143,0.0,0.0,13,0.00,,CLR,0.00,VWS V14.01,2013-07-18 17:12:00,
2013-07-18 10:17:00,88.2,31.2,29.86,SE,142,0.0,4.0,13,0.00,,CLR,0.00,VWS V14.01,2013-07-18 17:17:00,
2013-07-18 10:22:00,88.5,33.3,29.86,SE,142,1.0,4.0,14,0.00,,CLR,0.00,VWS V14.01,2013-07-18 17:22:00,
2013-07-18 10:27:00,89.1,31.9,29.86,SE,133,0.0,4.0,13,0.00,,CLR,0.00,VWS V14.01,2013-07-18 17:27:00,
2013-07-18 10:32:00,89.3,33.9,29.86,SE,133,0.0,0.0,14,0.00,,CLR,0.00,VWS V14.01,2013-07-18 17:32:00,
2013-07-18 10:37:00,90.0,30.6,29.85,SE,133,0.0,0.0,12,0.00,,CLR,0.00,VWS V14.01,2013-07-18 17:37:00,
2013-07-18 10:42:00,90.1,32.7,29.85,SE,133,0.0,0.0,13,0.00,,CLR,0.00,VWS V14.01,2013-07-18 17:42:00,
2013-07-18 10:47:00,90.5,31.0,29.86,SE,132,0.0,5.0,12,0.00,,CLR,0.00,VWS V14.01,2013-07-18 17:47:00,
2013-07-18 10:52:00,90.7,31.2,29.85,SE,132,0.0,2.0,12,0.00,,CLR,0.00,VWS V14.01,2013-07-18 17:52:00,
2013-07-18 10:57:00,91.2,31.6,29.85,ESE,111,0.0,7.0,12,0.00,,CLR,0.00,VWS V14.01,2013-07-18 17:57:00,
2013-07-18 11:02:00,91.3,31.6,29.85,ESE,110,0.0,0.0,12,0.00,,CLR,0.00,VWS V14.01,2013-07-18 18:02:00,
2013-07-18 11:07:00,91.6,33.9,29.85,ESE,110,0.0,5.0,13,0.00,,CLR,0.00,VWS V14.01,2013-07-18 18:07:00,
2013-07-18 11:13:00,91.9,30.0,29.85,ESE,110,0.0,0.0,11,0.00,,CLR,0.00,VWS V14.01,2013-07-18 18:13:00,
2013-07-18 11:18:00,92.0,30.0,29.84,ESE,111,0.0,5.0,11,0.00,,CLR,0.00,VWS V14.01,2013-07-18 18:18:00,
2013-07-18 11:23:00,91.9,34.1,29.84,ESE,110,5.0,5.0,13,0.00,,CLR,0.00,VWS V14.01,2013-07-18 18:23:00,
2013-07-18 11:28:00,92.2,30.2,29.84,ESE,107,4.0,5.0,11,0.00,,CLR,0.00,VWS V14.01,2013-07-18 18:28:00,
2013-07-18 11:33:00,92.4,32.5,29.84,ESE,107,2.0,4.0,12,0.00,,CLR,0.00,VWS V14.01,2013-07-18 18:33:00,
2013-07-18 11:38:00,92.9,30.7,29.84,ESE,108,2.0,5.0,11,0.00,,CLR,0.00,VWS V14.01,2013-07-18 18:38:00,
2013-07-18 11:43:00,93.0,33.0,29.84,ESE,108,2.0,4.0,12,0.00,,CLR,0.00,VWS V14.01,2013-07-18 18:43:00,
2013-07-18 11:48:00,93.3,33.2,29.84,ESE,107,0.0,4.0,12,0.00,,CLR,0.00,VWS V14.01,2013-07-18 18:48:00,
2013-07-18 11:53:00,93.6,31.2,29.84,East,99,7.0,7.0,11,0.00,,CLR,0.00,VWS V14.01,2013-07-18 18:53:00,
2013-07-18 11:58:00,94.2,31.7,29.83,ENE,57,0.0,7.0,11,0.00,,CLR,0.00,VWS V14.01,2013-07-18 18:58:00,
2013-07-18 12:03:00,94.3,29.4,29.83,ENE,57,0.0,0.0,10,0.00,,CLR,0.00,VWS V14.01,2013-07-18 19:03:00,
2013-07-18 12:08:00,94.5,29.6,29.83,ENE,57,0.0,0.0,10,0.00,,CLR,0.00,VWS V14.01,2013-07-18 19:08:00,
2013-07-18 12:13:00,94.6,36.2,29.83,ENE,57,0.0,0.0,13,0.00,,CLR,0.00,VWS V14.01,2013-07-18 19:13:00,
2013-07-18 12:18:00,95.3,30.2,29.82,NE,53,2.0,4.0,10,0.00,,CLR,0.00,VWS V14.01,2013-07-18 19:18:00,
2013-07-18 12:24:00,95.5,30.4,29.82,NE,43,4.0,4.0,10,0.00,,CLR,0.00,VWS V14.01,2013-07-18 19:24:00,
2013-07-18 12:29:00,96.1,30.8,29.82,NE,43,0.0,4.0,10,0.00,,CLR,0.00,VWS V14.01,2013-07-18 19:29:00,
2013-07-18 12:34:00,96.4,33.4,29.82,NE,46,0.0,0.0,11,0.00,,CLR,0.00,VWS V14.01,2013-07-18 19:34:00,
2013-07-18 12:39:00,96.7,25.8,29.81,NE,45,3.0,4.0,8,0.00,,CLR,0.00,VWS V14.01,2013-07-18 19:39:00,
2013-07-18 12:44:00,96.9,26.0,29.81,NE,36,3.0,4.0,8,0.00,,CLR,0.00,VWS V14.01,2013-07-18 19:44:00,
2013-07-18 12:49:00,97.3,29.1,29.80,NE,36,0.0,4.0,9,0.00,,CLR,0.00,VWS V14.01,2013-07-18 19:49:00,
2013-07-18 12:54:00,97.6,26.5,29.81,NE,34,1.0,4.0,8,0.00,,CLR,0.00,VWS V14.01,2013-07-18 19:54:00,
2013-07-18 12:59:00,98.0,26.8,29.80,NNE,29,0.0,4.0,8,0.00,,CLR,0.00,VWS V14.01,2013-07-18 19:59:00,
2013-07-18 13:04:00,98.1,29.7,29.80,NNE,29,4.0,4.0,9,0.00,,CLR,0.00,VWS V14.01,2013-07-18 20:04:00,
2013-07-18 13:09:00,98.5,32.6,29.80,NNE,29,0.0,4.0,10,0.00,,CLR,0.00,VWS V14.01,2013-07-18 20:09:00,
2013-07-18 13:14:00,98.8,27.4,29.80,ENE,63,4.0,5.0,8,0.00,,CLR,0.00,VWS V14.01,2013-07-18 20:14:00,
2013-07-18 13:19:00,98.9,27.4,29.80,NE,40,2.0,5.0,8,0.00,,CLR,0.00,VWS V14.01,2013-07-18 20:19:00,
2013-07-18 13:24:00,99.2,35.5,29.80,NNE,20,7.0,7.0,11,0.00,,CLR,0.00,VWS V14.01,2013-07-18 20:24:00,
2013-07-18 13:29:00,99.4,27.8,29.79,NNE,22,0.0,8.0,8,0.00,,CLR,0.00,VWS V14.01,2013-07-18 20:29:00,
2013-07-18 13:34:00,99.6,27.9,29.79,NE,44,2.0,4.0,8,0.00,,CLR,0.00,VWS V14.01,2013-07-18 20:34:00,
2013-07-18 13:39:00,99.8,28.1,29.79,ENE,74,6.0,7.0,8,0.00,,CLR,0.00,VWS V14.01,2013-07-18 20:39:00,
2013-07-18 13:44:00,99.9,31.0,29.79,ENE,74,0.0,6.0,9,0.00,,CLR,0.00,VWS V14.01,2013-07-18 20:44:00,
2013-07-18 13:50:00,99.9,28.2,29.79,ENE,57,4.0,8.0,8,0.00,,CLR,0.00,VWS V14.01,2013-07-18 20:50:00,
2013-07-18 13:55:00,99.9,24.9,29.79,ENE,77,0.0,6.0,7,0.00,,CLR,0.00,VWS V14.01,2013-07-18 20:55:00,
2013-07-18 14:00:00,99.9,28.2,29.79,ENE,71,3.0,7.0,8,0.00,,CLR,0.00,VWS V14.01,2013-07-18 21:00:00,
2013-07-18 14:05:00,100.0,31.1,29.78,ENE,71,0.0,6.0,9,0.00,,CLR,0.00,VWS V14.01,2013-07-18 21:05:00,
2013-07-18 14:10:00,100.3,28.5,29.78,NNE,13,6.0,6.0,8,0.00,,CLR,0.00,VWS V14.01,2013-07-18 21:10:00,
2013-07-18 14:15:00,100.4,28.5,29.78,ENE,63,0.0,8.0,8,0.00,,CLR,0.00,VWS V14.01,2013-07-18 21:15:00,
2013-07-18 14:20:00,100.6,28.7,29.78,NE,44,0.0,0.0,8,0.00,,CLR,0.00,VWS V14.01,2013-07-18 21:20:00,
2013-07-18 14:25:00,100.9,28.9,29.77,NE,44,0.0,0.0,8,0.00,,CLR,0.00,VWS V14.01,2013-07-18 21:25:00,
2013-07-18 14:30:00,101.3,26.0,29.77,NE,44,0.0,0.0,7,0.00,,CLR,0.00,VWS V14.01,2013-07-18 21:30:00,
2013-07-18 14:35:00,101.3,29.2,29.77,WNW,297,7.0,7.0,8,0.00,,CLR,0.00,VWS V14.01,2013-07-18 21:35:00,
2013-07-18 14:40:00,101.2,29.1,29.77,NW,304,0.0,7.0,8,0.00,,CLR,0.00,VWS V14.01,2013-07-18 21:40:00,
2013-07-18 14:45:00,101.2,29.1,29.76,NW,304,2.0,7.0,8,0.00,,CLR,0.00,VWS V14.01,2013-07-18 21:45:00,
2013-07-18 14:50:00,101.2,29.1,29.76,WNW,301,1.0,4.0,8,0.00,,CLR,0.00,VWS V14.01,2013-07-18 21:50:00,
2013-07-18 14:55:00,101.2,29.1,29.76,WNW,300,0.0,4.0,8,0.00,,CLR,0.00,VWS V14.01,2013-07-18 21:55:00,
2013-07-18 15:00:00,101.3,29.2,29.75,WNW,300,0.0,0.0,8,0.00,,CLR,0.00,VWS V14.01,2013-07-18 22:00:00,
2013-07-18 15:05:00,101.4,29.3,29.75,WNW,293,0.0,1.0,8,0.00,,CLR,0.00,VWS V14.01,2013-07-18 22:05:00,
2013-07-18 15:11:00,101.2,29.1,29.75,West,268,0.0,4.0,8,0.00,,CLR,0.00,VWS V14.01,2013-07-18 22:11:00,
2013-07-18 15:16:00,101.2,29.1,29.75,West,268,0.0,4.0,8,0.00,,CLR,0.00,VWS V14.01,2013-07-18 22:16:00,
2013-07-18 15:21:00,101.0,29.0,29.75,West,271,4.0,5.0,8,0.00,,CLR,0.00,VWS V14.01,2013-07-18 22:21:00,
2013-07-18 15:26:00,100.9,39.0,29.75,WSW,241,0.0,5.0,12,0.00,,CLR,0.00,VWS V14.01,2013-07-18 22:26:00,
2013-07-18 15:31:00,101.0,39.1,29.74,WSW,239,1.0,3.0,12,0.00,,CLR,0.00,VWS V14.01,2013-07-18 22:31:00,
2013-07-18 15:36:00,101.3,39.3,29.74,SW,232,5.0,7.0,12,0.00,,CLR,0.00,VWS V14.01,2013-07-18 22:36:00,
2013-07-18 15:41:00,101.2,39.3,29.74,WSW,257,5.0,8.0,12,0.00,,CLR,0.00,VWS V14.01,2013-07-18 22:41:00,
2013-07-18 15:46:00,100.7,38.9,29.74,WSW,248,4.0,8.0,12,0.00,,CLR,0.00,VWS V14.01,2013-07-18 22:46:00,
2013-07-18 15:51:00,100.3,38.6,29.73,SW,234,2.0,12.0,12,0.00,,CLR,0.00,VWS V14.01,2013-07-18 22:51:00,
2013-07-18 15:56:00,99.8,40.2,29.73,SW,229,11.0,12.0,13,0.00,,CLR,0.00,VWS V14.01,2013-07-18 22:56:00,
2013-07-18 16:01:00,99.4,39.9,29.73,SW,234,0.0,6.0,13,0.00,,CLR,0.00,VWS V14.01,2013-07-18 23:01:00,
2013-07-18 16:06:00,99.2,39.8,29.73,SW,231,2.0,8.0,13,0.00,,CLR,0.00,VWS V14.01,2013-07-18 23:06:00,
2013-07-18 16:11:00,99.1,41.6,29.73,SW,227,2.0,10.0,14,0.00,,CLR,0.00,VWS V14.01,2013-07-18 23:11:00,
2013-07-18 16:16:00,98.9,41.5,29.73,SW,227,2.0,10.0,14,0.00,,CLR,0.00,VWS V14.01,2013-07-18 23:16:00,
2013-07-18 16:21:00,98.8,43.2,29.73,WSW,237,3.0,6.0,15,0.00,,CLR,0.00,VWS V14.01,2013-07-18 23:21:00,
2013-07-18 16:26:00,98.5,42.9,29.72,SW,219,1.0,12.0,15,0.00,,CLR,0.00,VWS V14.01,2013-07-18 23:26:00,
2013-07-18 16:31:00,98.7,43.1,29.72,SW,229,2.0,8.0,15,0.00,,CLR,0.00,VWS V14.01,2013-07-18 23:31:00,
2013-07-18 16:37:00,98.8,43.2,29.72,WSW,247,2.0,8.0,15,0.00,,CLR,0.00,VWS V14.01,2013-07-18 23:37:00,
2013-07-18 16:42:00,98.8,43.2,29.72,SW,227,0.0,8.0,15,0.00,,CLR,0.00,VWS V14.01,2013-07-18 23:42:00,
2013-07-18 16:47:00,98.6,43.0,29.72,SW,228,4.0,10.0,15,0.00,,CLR,0.00,VWS V14.01,2013-07-18 23:47:00,
2013-07-18 16:52:00,98.5,44.6,29.72,SW,216,2.0,9.0,16,0.00,,CLR,0.00,VWS V14.01,2013-07-18 23:52:00,
2013-07-18 16:57:00,98.2,44.4,29.72,SSE,165,5.0,9.0,16,0.00,,CLR,0.00,VWS V14.01,2013-07-18 23:57:00,
2013-07-18 17:02:00,97.9,42.5,29.72,SSW,201,0.0,15.0,15,0.00,,CLR,0.00,VWS V14.01,2013-07-19 00:02:00,
2013-07-18 17:07:00,97.6,42.2,29.71,SW,230,5.0,15.0,15,0.00,,CLR,0.00,VWS V14.01,2013-07-19 00:07:00,
2013-07-18 17:12:00,97.3,42.0,29.71,SW,225,5.0,11.0,15,0.00,,CLR,0.00,VWS V14.01,2013-07-19 00:12:00,
2013-07-18 17:17:00,96.9,43.3,29.71,SW,229,5.0,11.0,16,0.00,,CLR,0.00,VWS V14.01,2013-07-19 00:17:00,
2013-07-18 17:22:00,96.7,41.5,29.71,SW,235,3.0,13.0,15,0.00,,CLR,0.00,VWS V14.01,2013-07-19 00:22:00,
2013-07-18 17:27:00,96.6,43.1,29.71,WSW,243,7.0,13.0,16,0.00,,CLR,0.00,VWS V14.01,2013-07-19 00:27:00,
2013-07-18 17:32:00,96.3,42.9,29.71,SW,226,0.0,10.0,16,0.00,,CLR,0.00,VWS V14.01,2013-07-19 00:32:00,
2013-07-18 17:37:00,96.3,44.4,29.71,SW,219,8.0,11.0,17,0.00,,CLR,0.00,VWS V14.01,2013-07-19 00:37:00,
2013-07-18 17:42:00,96.0,42.6,29.71,SSW,196,1.0,7.0,16,0.00,,CLR,0.00,VWS V14.01,2013-07-19 00:42:00,
2013-07-18 17:47:00,95.6,42.3,29.71,SW,224,6.0,18.0,16,0.00,,CLR,0.00,VWS V14.01,2013-07-19 00:47:00,
2013-07-18 17:52:00,95.5,40.5,29.71,WSW,240,8.0,12.0,15,0.00,,CLR,0.00,VWS V14.01,2013-07-19 00:52:00,
2013-07-18 17:58:00,95.4,40.5,29.70,SW,232,7.0,12.0,15,0.00,,CLR,0.00,VWS V14.01,2013-07-19 00:58:00,
2013-07-18 18:03:00,95.4,40.5,29.70,West,262,14.0,14.0,15,0.00,,CLR,0.00,VWS V14.01,2013-07-19 01:03:00,
2013-07-18 18:08:00,95.2,42.0,29.70,SW,236,0.0,14.0,16,0.00,,CLR,0.00,VWS V14.01,2013-07-19 01:08:00,
2013-07-18 18:13:00,95.2,40.3,29.71,SW,219,4.0,11.0,15,0.00,,CLR,0.00,VWS V14.01,2013-07-19 01:13:00,
2013-07-18 18:18:00,95.3,42.1,29.70,SW,221,7.0,11.0,16,0.00,,CLR,0.00,VWS V14.01,2013-07-19 01:18:00,
2013-07-18 18:23:00,95.2,40.3,29.70,SW,230,0.0,11.0,15,0.00,,CLR,0.00,VWS V14.01,2013-07-19 01:23:00,
2013-07-18 18:28:00,94.7,39.9,29.70,SW,224,3.0,11.0,15,0.00,,CLR,0.00,VWS V14.01,2013-07-19 01:28:00,
2013-07-18 18:33:00,94.3,39.6,29.70,SW,225,1.0,10.0,15,0.00,,CLR,0.00,VWS V14.01,2013-07-19 01:33:00,
2013-07-18 18:38:00,93.7,39.1,29.70,SW,234,4.0,10.0,15,0.00,,CLR,0.00,VWS V14.01,2013-07-19 01:38:00,
2013-07-18 18:43:00,93.4,38.9,29.70,SSW,202,2.0,11.0,15,0.00,,CLR,0.00,VWS V14.01,2013-07-19 01:43:00,
2013-07-18 18:48:00,93.0,38.6,29.71,SW,227,1.0,11.0,15,0.00,,CLR,0.00,VWS V14.01,2013-07-19 01:48:00,
2013-07-18 18:53:00,92.8,38.4,29.71,SW,232,0.0,5.0,15,0.00,,CLR,0.00,VWS V14.01,2013-07-19 01:53:00,
2013-07-18 18:58:00,92.5,36.4,29.71,SSW,200,6.0,12.0,14,0.00,,CLR,0.00,VWS V14.01,2013-07-19 01:58:00,
2013-07-18 19:03:00,92.3,36.3,29.71,SW,229,8.0,8.0,14,0.00,,CLR,0.00,VWS V14.01,2013-07-19 02:03:00,
2013-07-18 19:08:00,91.8,37.6,29.71,WSW,237,5.0,8.0,15,0.00,,CLR,0.00,VWS V14.01,2013-07-19 02:08:00,
2013-07-18 19:14:00,91.4,37.3,29.71,SW,236,0.0,6.0,15,0.00,,CLR,0.00,VWS V14.01,2013-07-19 02:14:00,
2013-07-18 19:19:00,90.7,36.8,29.71,SW,227,2.0,11.0,15,0.00,,CLR,0.00,VWS V14.01,2013-07-19 02:19:00,
2013-07-18 19:24:00,90.4,36.5,29.72,SW,224,12.0,12.0,15,0.00,,CLR,0.00,VWS V14.01,2013-07-19 02:24:00,
2013-07-18 19:29:00,89.9,34.4,29.72,SW,227,4.0,12.0,14,0.00,,CLR,0.00,VWS V14.01,2013-07-19 02:29:00,
2013-07-18 19:34:00,89.6,34.2,29.72,WSW,249,0.0,8.0,14,0.00,,CLR,0.00,VWS V14.01,2013-07-19 02:34:00,
2013-07-18 19:39:00,89.1,31.9,29.72,SW,233,4.0,10.0,13,0.00,,CLR,0.00,VWS V14.01,2013-07-19 02:39:00,
2013-07-18 19:44:00,88.9,31.8,29.73,WSW,238,0.0,6.0,13,0.00,,CLR,0.00,VWS V14.01,2013-07-19 02:44:00,
2013-07-18 19:49:00,88.3,31.3,29.73,SW,234,0.0,8.0,13,0.00,,CLR,0.00,VWS V14.01,2013-07-19 02:49:00,
2013-07-18 19:54:00,88.1,33.0,29.73,SW,228,0.0,3.0,14,0.00,,CLR,0.00,VWS V14.01,2013-07-19 02:54:00,
2013-07-18 19:59:00,87.6,32.6,29.73,WSW,257,3.0,5.0,14,0.00,,CLR,0.00,VWS V14.01,2013-07-19 02:59:00,
2013-07-18 20:04:00,87.3,32.3,29.73,WSW,247,0.0,0.0,14,0.00,,CLR,0.00,VWS V14.01,2013-07-19 03:04:00,
2013-07-18 20:09:00,86.8,31.9,29.74,West,268,3.0,7.0,14,0.00,,CLR,0.00,VWS V14.01,2013-07-19 03:09:00,
2013-07-18 20:14:00,86.4,33.3,29.74,North,5,5.0,8.0,15,0.00,,CLR,0.00,VWS V14.01,2013-07-19 03:14:00,
2013-07-18 20:19:00,86.0,31.3,29.74,NW,324,6.0,8.0,14,0.00,,CLR,0.00,VWS V14.01,2013-07-19 03:19:00,
2013-07-18 20:24:00,85.7,31.1,29.75,NW,314,0.0,6.0,14,0.00,,CLR,0.00,VWS V14.01,2013-07-19 03:24:00,
2013-07-18 20:29:00,85.4,29.0,29.75,NW,306,4.0,6.0,13,0.00,,CLR,0.00,VWS V14.01,2013-07-19 03:29:00,
2013-07-18 20:34:00,85.1,30.6,29.75,NW,307,0.0,4.0,14,0.00,,CLR,0.00,VWS V14.01,2013-07-19 03:34:00,
2013-07-18 20:40:00,84.8,28.5,29.75,NW,307,0.0,4.0,13,0.00,,CLR,0.00,VWS V14.01,2013-07-19 03:40:00,
2013-07-18 20:45:00,84.4,33.3,29.75,NW,310,0.0,6.0,16,0.00,,CLR,0.00,VWS V14.01,2013-07-19 03:45:00,
2013-07-18 20:50:00,83.9,35.9,29.76,NW,313,0.0,6.0,18,0.00,,CLR,0.00,VWS V14.01,2013-07-19 03:50:00,
2013-07-18 20:55:00,83.4,36.9,29.76,NW,313,0.0,4.0,19,0.00,,CLR,0.00,VWS V14.01,2013-07-19 03:55:00,
2013-07-18 21:00:00,82.8,36.4,29.76,NW,313,0.0,0.0,19,0.00,,CLR,0.00,VWS V14.01,2013-07-19 04:00:00,
2013-07-18 21:01:00,82.6,36.2,29.76,NW,313,0.0,0.0,19,0.00,,CLR,0.00,VWS V14.01,2013-07-19 04:01:00,
2013-07-18 21:03:00,82.5,37.4,29.76,NW,313,0.0,0.0,20,0.00,,CLR,0.00,VWS V14.01,2013-07-19 04:03:00,
2013-07-18 21:06:00,82.0,37.0,29.76,NW,313,0.0,0.0,20,0.00,,CLR,0.00,VWS V14.01,2013-07-19 04:06:00,
2013-07-18 21:09:00,81.7,36.8,29.76,NW,313,0.0,0.0,20,0.00,,CLR,0.00,VWS V14.01,2013-07-19 04:09:00,
2013-07-18 21:11:00,81.4,36.5,29.76,NW,313,0.0,0.0,20,0.00,,CLR,0.00,VWS V14.01,2013-07-19 04:11:00,
2013-07-18 21:16:00,80.9,36.1,29.77,NW,313,0.0,0.0,20,0.00,,CLR,0.00,VWS V14.01,2013-07-19 04:16:00,
2013-07-18 21:21:00,80.3,35.6,29.77,NW,313,0.0,0.0,20,0.00,,CLR,0.00,VWS V14.01,2013-07-19 04:21:00,
2013-07-18 21:26:00,79.8,35.2,29.77,NW,313,0.0,0.0,20,0.00,,CLR,0.00,VWS V14.01,2013-07-19 04:26:00,
2013-07-18 21:31:00,79.4,34.9,29.77,NW,313,0.0,0.0,20,0.00,,CLR,0.00,VWS V14.01,2013-07-19 04:31:00,
2013-07-18 21:36:00,78.9,36.9,29.77,NW,313,0.0,0.0,22,0.00,,CLR,0.00,VWS V14.01,2013-07-19 04:36:00,
2013-07-18 21:41:00,78.5,36.5,29.77,NW,313,0.0,0.0,22,0.00,,CLR,0.00,VWS V14.01,2013-07-19 04:41:00,
2013-07-18 21:46:00,78.0,38.3,29.77,NW,313,0.0,0.0,24,0.00,,CLR,0.00,VWS V14.01,2013-07-19 04:46:00,
2013-07-18 21:51:00,77.6,38.0,29.77,NW,313,0.0,0.0,24,0.00,,CLR,0.00,VWS V14.01,2013-07-19 04:51:00,
2013-07-18 21:56:00,77.1,38.6,29.77,NW,313,0.0,0.0,25,0.00,,CLR,0.00,VWS V14.01,2013-07-19 04:56:00,
2013-07-18 22:01:00,76.6,39.2,29.77,NW,313,0.0,0.0,26,0.00,,CLR,0.00,VWS V14.01,2013-07-19 05:01:00,
2013-07-18 22:07:00,76.2,37.8,29.77,NW,313,0.0,0.0,25,0.00,,CLR,0.00,VWS V14.01,2013-07-19 05:07:00,
2013-07-18 22:12:00,75.9,36.5,29.77,NW,313,0.0,0.0,24,0.00,,CLR,0.00,VWS V14.01,2013-07-19 05:12:00,
2013-07-18 22:17:00,75.6,37.3,29.77,NW,313,0.0,0.0,25,0.00,,CLR,0.00,VWS V14.01,2013-07-19 05:17:00,
2013-07-18 22:22:00,75.4,36.1,29.77,NW,313,0.0,0.0,24,0.00,,CLR,0.00,VWS V14.01,2013-07-19 05:22:00,
2013-07-18 22:27:00,75.1,35.9,29.77,NW,313,0.0,0.0,24,0.00,,CLR,0.00,VWS V14.01,2013-07-19 05:27:00,
2013-07-18 22:32:00,74.9,36.7,29.77,NW,313,0.0,0.0,25,0.00,,CLR,0.00,VWS V14.01,2013-07-19 05:32:00,
2013-07-18 22:37:00,74.7,35.5,29.77,NW,313,0.0,0.0,24,0.00,,CLR,0.00,VWS V14.01,2013-07-19 05:37:00,
2013-07-18 22:42:00,74.6,36.5,29.77,NW,313,0.0,0.0,25,0.00,,CLR,0.00,VWS V14.01,2013-07-19 05:42:00,
2013-07-18 22:47:00,74.6,36.5,29.77,NW,313,0.0,0.0,25,0.00,,CLR,0.00,VWS V14.01,2013-07-19 05:47:00,
2013-07-18 22:52:00,74.5,37.4,29.78,NW,313,0.0,0.0,26,0.00,,CLR,0.00,VWS V14.01,2013-07-19 05:52:00,
2013-07-18 22:57:00,74.3,37.2,29.77,NW,313,0.0,0.0,26,0.00,,CLR,0.00,VWS V14.01,2013-07-19 05:57:00,
2013-07-18 23:02:00,74.2,38.1,29.77,NW,313,0.0,0.0,27,0.00,,CLR,0.00,VWS V14.01,2013-07-19 06:02:00,
2013-07-18 23:07:00,73.9,37.8,29.77,NW,313,0.0,0.0,27,0.00,,CLR,0.00,VWS V14.01,2013-07-19 06:07:00,
2013-07-18 23:12:00,73.7,37.7,29.77,NW,313,0.0,0.0,27,0.00,,CLR,0.00,VWS V14.01,2013-07-19 06:12:00,
2013-07-18 23:17:00,73.8,37.8,29.77,NW,313,0.0,0.0,27,0.00,,CLR,0.00,VWS V14.01,2013-07-19 06:17:00,
2013-07-18 23:23:00,73.9,37.8,29.77,NW,313,0.0,0.0,27,0.00,,CLR,0.00,VWS V14.01,2013-07-19 06:23:00,
2013-07-18 23:28:00,73.8,38.7,29.77,NW,313,0.0,0.0,28,0.00,,CLR,0.00,VWS V14.01,2013-07-19 06:28:00,
2013-07-18 23:33:00,73.6,38.5,29.77,NW,313,0.0,0.0,28,0.00,,CLR,0.00,VWS V14.01,2013-07-19 06:33:00,
2013-07-18 23:38:00,73.4,39.2,29.76,NW,313,0.0,0.0,29,0.00,,CLR,0.00,VWS V14.01,2013-07-19 06:38:00,
2013-07-18 23:43:00,73.1,38.1,29.76,NW,313,0.0,0.0,28,0.00,,CLR,0.00,VWS V14.01,2013-07-19 06:43:00,
2013-07-18 23:48:00,73.0,38.9,29.76,NW,313,0.0,0.0,29,0.00,,CLR,0.00,VWS V14.01,2013-07-19 06:48:00,
2013-07-18 23:53:00,72.8,37.8,29.76,NW,313,0.0,0.0,28,0.00,,CLR,0.00,VWS V14.01,2013-07-19 06:53:00,
2013-07-18 23:58:00,72.8,37.8,29.75,NW,313,0.0,0.0,28,0.00,,CLR,0.00,VWS V14.01,2013-07-19 06:58:00,